createdAt,value
2017-08-23T00:01:01.399Z,8.07
2017-08-23T00:03:29.727Z,8.30
2017-08-23T00:05:58.017Z,7.53
2017-08-23T00:08:26.357Z,8.50
2017-08-23T00:10:54.654Z,7.83
2017-08-23T00:13:22.974Z,9.50
2017-08-23T00:15:51.300Z,9.17
2017-08-23T00:18:19.702Z,7.80
2017-08-23T00:20:48.005Z,7.53
2017-08-23T00:23:16.699Z,8.00
2017-08-23T00:25:44.995Z,10.33
2017-08-23T00:28:13.298Z,7.90
2017-08-23T00:30:41.624Z,8.13
2017-08-23T00:33:09.928Z,7.60
2017-08-23T00:35:38.283Z,9.93
2017-08-23T00:38:06.607Z,9.43
2017-08-23T00:40:34.944Z,8.23
2017-08-23T00:43:03.278Z,8.73
2017-08-23T00:45:31.603Z,8.20
2017-08-23T00:47:59.919Z,9.40
2017-08-23T00:50:28.237Z,8.50
2017-08-23T00:52:56.549Z,9.87
2017-08-23T00:55:25.092Z,10.43
2017-08-23T00:57:53.393Z,10.73
2017-08-23T01:00:21.690Z,10.33
2017-08-23T01:02:50.028Z,9.50
2017-08-23T01:05:18.326Z,12.60
2017-08-23T01:07:46.654Z,12.80
2017-08-23T01:10:15.723Z,10.03
2017-08-23T01:12:44.037Z,9.40
2017-08-23T01:15:12.326Z,7.50
2017-08-23T01:17:40.642Z,11.37
2017-08-23T01:20:08.938Z,7.30
2017-08-23T01:22:37.291Z,10.90
2017-08-23T01:25:05.601Z,8.27
2017-08-23T01:27:33.943Z,11.77
2017-08-23T01:30:02.241Z,9.90
2017-08-23T01:32:30.651Z,9.20
2017-08-23T01:34:58.955Z,10.30
2017-08-23T01:37:27.269Z,8.43
2017-08-23T01:39:55.579Z,11.17
2017-08-23T01:42:23.884Z,13.37
2017-08-23T01:44:52.338Z,13.77
2017-08-23T01:47:20.670Z,13.30
2017-08-23T01:49:48.969Z,12.67
2017-08-23T01:52:17.290Z,9.30
2017-08-23T01:54:45.575Z,9.13
2017-08-23T01:57:13.894Z,8.53
2017-08-23T01:59:42.199Z,9.90
2017-08-23T02:02:10.533Z,11.70
2017-08-23T02:04:38.831Z,9.83
2017-08-23T02:07:07.152Z,8.97
2017-08-23T02:09:35.432Z,12.23
2017-08-23T02:12:03.763Z,11.70
2017-08-23T02:14:32.069Z,11.57
2017-08-23T02:17:00.418Z,13.30
2017-08-23T02:19:29.522Z,13.23
2017-08-23T02:21:57.834Z,11.67
2017-08-23T02:24:26.166Z,8.90
2017-08-23T02:26:54.491Z,8.30
2017-08-23T02:29:22.808Z,9.93
2017-08-23T02:31:51.134Z,8.43
2017-08-23T02:34:19.746Z,9.70
2017-08-23T02:36:48.062Z,10.83
2017-08-23T02:39:16.370Z,10.53
2017-08-23T02:41:44.703Z,14.17
2017-08-23T02:44:13.004Z,11.70
2017-08-23T02:46:41.352Z,10.90
2017-08-23T02:49:09.662Z,10.43
2017-08-23T02:51:37.999Z,11.50
2017-08-23T02:54:06.319Z,11.43
2017-08-23T02:56:34.892Z,8.77
2017-08-23T02:59:03.201Z,9.20
2017-08-23T03:01:31.494Z,9.43
2017-08-23T03:03:59.810Z,9.70
2017-08-23T03:06:28.875Z,8.87
2017-08-23T03:08:57.998Z,9.97
2017-08-23T03:11:26.295Z,9.87
2017-08-23T03:13:55.382Z,8.50
2017-08-23T03:16:23.669Z,8.70
2017-08-23T03:18:52.002Z,10.67
2017-08-23T03:21:20.296Z,8.80
2017-08-23T03:23:48.756Z,9.87
2017-08-23T03:26:17.055Z,9.90
2017-08-23T03:28:45.359Z,10.43
2017-08-23T03:31:13.666Z,9.93
2017-08-23T03:33:41.960Z,9.90
2017-08-23T03:36:10.293Z,10.30
2017-08-23T03:38:38.582Z,10.30
2017-08-23T03:41:06.896Z,12.17
2017-08-23T03:43:35.220Z,12.03
2017-08-23T03:46:03.541Z,13.40
2017-08-23T03:48:31.852Z,12.30
2017-08-23T03:51:00.170Z,9.87
2017-08-23T03:53:28.460Z,16.10
2017-08-23T03:55:56.800Z,14.33
2017-08-23T03:58:25.098Z,11.97
2017-08-23T04:00:53.522Z,11.47
2017-08-23T04:03:21.822Z,11.60
2017-08-23T04:05:50.126Z,10.93
2017-08-23T04:08:18.458Z,9.97
2017-08-23T04:10:46.759Z,11.00
2017-08-23T04:13:15.070Z,8.60
2017-08-23T04:15:43.354Z,9.80
2017-08-23T04:18:11.673Z,9.60
2017-08-23T04:20:39.963Z,9.00
2017-08-23T04:23:08.284Z,11.17
2017-08-23T04:25:36.610Z,10.03
2017-08-23T04:28:04.964Z,9.23
2017-08-23T04:30:33.259Z,9.53
2017-08-23T04:33:01.577Z,8.70
2017-08-23T04:35:29.898Z,8.23
2017-08-23T04:37:58.220Z,8.33
2017-08-23T04:40:26.531Z,9.60
2017-08-23T04:42:54.840Z,7.97
2017-08-23T04:45:23.139Z,11.30
2017-08-23T04:47:51.487Z,9.00
2017-08-23T04:50:19.783Z,8.00
2017-08-23T04:52:48.103Z,11.43
2017-08-23T04:55:16.382Z,8.47
2017-08-23T04:57:44.808Z,9.40
2017-08-23T05:00:13.864Z,8.20
2017-08-23T05:02:42.162Z,8.67
2017-08-23T05:05:10.495Z,9.17
2017-08-23T05:07:38.813Z,9.53
2017-08-23T05:10:07.143Z,10.83
2017-08-23T05:12:35.428Z,9.43
2017-08-23T05:15:03.747Z,10.80
2017-08-23T05:17:32.049Z,11.53
2017-08-23T05:20:00.379Z,9.67
2017-08-23T05:22:28.691Z,10.00
2017-08-23T05:24:57.126Z,8.50
2017-08-23T05:27:25.410Z,9.50
2017-08-23T05:29:53.709Z,10.83
2017-08-23T05:32:22.058Z,10.57
2017-08-23T05:34:50.390Z,12.67
2017-08-23T05:37:18.729Z,12.07
2017-08-23T05:39:47.034Z,11.30
2017-08-23T05:42:15.400Z,10.97
2017-08-23T05:44:43.781Z,10.73
2017-08-23T05:47:12.359Z,10.90
2017-08-23T05:49:40.658Z,14.10
2017-08-23T05:52:08.978Z,12.87
2017-08-23T05:54:37.294Z,11.60
2017-08-23T05:57:05.599Z,13.17
2017-08-23T05:59:33.914Z,13.90
2017-08-23T06:02:02.220Z,11.80
2017-08-23T06:04:30.542Z,9.93
2017-08-23T06:06:58.854Z,11.53
2017-08-23T06:09:27.216Z,12.20
2017-08-23T06:11:55.551Z,12.00
2017-08-23T06:14:24.104Z,11.13
2017-08-23T06:16:52.440Z,14.17
2017-08-23T06:19:20.748Z,13.07
2017-08-23T06:21:49.078Z,12.23
2017-08-23T06:24:17.383Z,12.27
2017-08-23T06:26:45.729Z,11.97
2017-08-23T06:29:14.038Z,12.00
2017-08-23T06:31:42.366Z,14.80
2017-08-23T06:34:10.670Z,11.50
2017-08-23T06:36:39.111Z,10.63
2017-08-23T06:39:07.428Z,12.70
2017-08-23T06:41:35.761Z,9.93
2017-08-23T06:44:04.135Z,9.87
2017-08-23T06:46:33.209Z,12.50
2017-08-23T06:49:01.530Z,7.37
2017-08-23T06:51:29.853Z,8.50
2017-08-23T06:53:58.155Z,7.90
2017-08-23T06:56:27.219Z,9.13
2017-08-23T06:58:55.536Z,8.20
2017-08-23T07:01:23.826Z,9.13
2017-08-23T07:03:52.627Z,8.30
2017-08-23T07:06:20.910Z,10.63
2017-08-23T07:08:49.212Z,8.53
2017-08-23T07:11:17.537Z,8.37
2017-08-23T07:13:45.820Z,9.67
2017-08-23T07:16:14.148Z,6.33
2017-08-23T07:18:43.482Z,7.97
2017-08-23T07:21:11.798Z,7.50
2017-08-23T07:23:40.103Z,8.03
2017-08-23T07:26:08.436Z,9.43
2017-08-23T07:28:36.754Z,8.67
2017-08-23T07:31:05.087Z,7.30
2017-08-23T07:33:33.451Z,6.30
2017-08-23T07:36:01.764Z,6.60
2017-08-23T07:38:30.064Z,8.53
2017-08-23T07:40:58.487Z,7.07
2017-08-23T07:43:26.787Z,6.60
2017-08-23T07:45:55.062Z,6.50
2017-08-23T07:48:23.411Z,5.70
2017-08-23T07:50:51.726Z,6.77
2017-08-23T07:53:20.087Z,7.83
2017-08-23T07:55:48.373Z,7.77
2017-08-23T07:58:16.711Z,6.83
2017-08-23T08:00:45.004Z,7.27
2017-08-23T08:03:13.346Z,8.40
2017-08-23T08:05:41.699Z,6.90
2017-08-23T08:08:10.224Z,6.73
2017-08-23T08:10:38.542Z,8.70
2017-08-23T08:13:06.961Z,7.90
2017-08-23T08:15:35.291Z,6.27
2017-08-23T08:18:03.635Z,6.07
2017-08-23T08:20:31.996Z,8.40
2017-08-23T08:23:00.314Z,9.13
2017-08-23T08:25:28.905Z,7.47
2017-08-23T08:27:57.222Z,8.20
2017-08-23T08:30:25.574Z,8.30
2017-08-23T08:32:53.907Z,6.63
2017-08-23T08:35:22.360Z,8.30
2017-08-23T08:37:50.715Z,7.87
2017-08-23T08:40:19.047Z,8.40
2017-08-23T08:42:47.364Z,10.93
2017-08-23T08:45:15.679Z,9.63
2017-08-23T08:47:44.000Z,8.27
2017-08-23T08:50:12.291Z,8.60
2017-08-23T08:52:40.621Z,10.23
2017-08-23T08:55:08.962Z,8.70
2017-08-23T08:57:37.609Z,9.63
2017-08-23T09:00:05.986Z,7.97
2017-08-23T09:02:34.275Z,7.17
2017-08-23T09:05:02.583Z,8.43
2017-08-23T09:07:30.911Z,8.10
2017-08-23T09:09:59.373Z,11.93
2017-08-23T09:12:27.720Z,11.30
2017-08-23T09:14:56.059Z,8.73
2017-08-23T09:17:24.398Z,10.57
2017-08-23T09:19:52.751Z,7.80
2017-08-23T09:22:21.054Z,6.87
2017-08-23T09:24:49.372Z,6.20
2017-08-23T09:27:17.706Z,9.10
2017-08-23T09:29:46.282Z,7.77
2017-08-23T09:32:14.626Z,7.17
2017-08-23T09:34:43.195Z,8.07
2017-08-23T09:37:11.955Z,9.40
2017-08-23T09:39:40.340Z,7.40
2017-08-23T09:42:09.547Z,9.80
2017-08-23T09:44:38.175Z,9.37
2017-08-23T09:47:06.580Z,9.93
2017-08-23T09:49:37.129Z,7.33
2017-08-23T09:52:05.538Z,8.27
2017-08-23T09:54:34.097Z,11.77
2017-08-23T09:57:02.911Z,7.63
2017-08-23T09:59:31.431Z,8.40
2017-08-23T10:02:01.211Z,8.20
2017-08-23T10:04:30.339Z,9.83
2017-08-23T10:06:59.222Z,8.23
2017-08-23T10:09:27.568Z,10.67
2017-08-23T10:11:55.926Z,8.33
2017-08-23T10:14:24.267Z,13.53
2017-08-23T10:16:52.619Z,10.23
2017-08-23T10:19:20.964Z,12.50
2017-08-23T10:21:49.277Z,9.37
2017-08-23T10:24:17.629Z,9.40
2017-08-23T10:26:45.961Z,12.33
2017-08-23T10:29:14.314Z,12.80
2017-08-23T10:31:42.677Z,15.83
2017-08-23T10:34:11.867Z,10.20
2017-08-23T10:36:40.199Z,11.50
2017-08-23T10:39:08.657Z,12.97
2017-08-23T10:41:36.966Z,9.20
2017-08-23T10:44:05.260Z,10.70
2017-08-23T10:46:33.603Z,13.17
2017-08-23T10:49:01.919Z,15.50
2017-08-23T10:51:30.250Z,16.03
2017-08-23T10:53:58.575Z,15.97
2017-08-23T10:56:26.910Z,9.63
2017-08-23T10:58:55.210Z,13.00
2017-08-23T11:01:24.263Z,11.60
2017-08-23T11:03:52.578Z,13.40
2017-08-23T11:06:21.015Z,13.40
2017-08-23T11:08:49.331Z,18.83
2017-08-23T11:11:17.629Z,9.97
2017-08-23T11:13:45.967Z,16.80
2017-08-23T11:16:14.272Z,12.33
2017-08-23T11:18:42.934Z,13.20
2017-08-23T11:21:12.116Z,10.43
2017-08-23T11:23:40.454Z,14.53
2017-08-23T11:26:08.753Z,11.77
2017-08-23T11:28:37.178Z,7.90
2017-08-23T11:31:05.508Z,8.30
2017-08-23T11:33:33.802Z,8.87
2017-08-23T11:36:02.143Z,10.33
2017-08-23T11:38:33.148Z,12.00
2017-08-23T11:41:02.427Z,12.57
2017-08-23T11:43:30.756Z,12.90
2017-08-23T11:45:59.490Z,15.47
2017-08-23T11:48:27.869Z,10.20
2017-08-23T11:50:56.191Z,13.10
2017-08-23T11:53:24.482Z,9.40
2017-08-23T11:55:52.810Z,17.03
2017-08-23T11:58:21.128Z,17.00
2017-08-23T12:00:50.231Z,15.53
2017-08-23T12:03:18.589Z,10.07
2017-08-23T12:05:46.906Z,8.10
2017-08-23T12:08:15.221Z,13.30
2017-08-23T12:10:43.756Z,11.03
2017-08-23T12:13:12.055Z,7.30
2017-08-23T12:15:40.343Z,9.00
2017-08-23T12:18:08.686Z,12.90
2017-08-23T12:20:37.028Z,8.77
2017-08-23T12:23:05.338Z,11.73
2017-08-23T12:25:33.648Z,10.43
2017-08-23T12:28:01.973Z,10.37
2017-08-23T12:30:30.258Z,9.20
2017-08-23T12:32:58.606Z,12.33
2017-08-23T12:35:27.025Z,17.20
2017-08-23T12:37:55.310Z,17.40
2017-08-23T12:40:23.652Z,15.23
2017-08-23T12:42:51.956Z,12.37
2017-08-23T12:45:20.295Z,12.27
2017-08-23T12:47:48.583Z,13.83
2017-08-23T12:50:16.978Z,12.00
2017-08-23T12:52:45.342Z,23.50
2017-08-23T12:55:13.680Z,14.47
2017-08-23T12:57:42.042Z,16.87
2017-08-23T13:00:10.417Z,14.17
2017-08-23T13:02:38.763Z,13.53
2017-08-23T13:05:07.079Z,10.83
2017-08-23T13:07:35.404Z,10.20
2017-08-23T13:10:03.702Z,15.73
2017-08-23T13:12:32.044Z,12.60
2017-08-23T13:15:00.359Z,13.70
2017-08-23T13:17:28.732Z,13.73
2017-08-23T13:19:57.040Z,14.43
2017-08-23T13:22:25.562Z,12.37
2017-08-23T13:24:53.775Z,11.37
2017-08-23T13:27:22.088Z,6.33
2017-08-23T13:29:50.441Z,7.00
2017-08-23T13:32:18.739Z,9.10
2017-08-23T13:34:47.082Z,7.67
2017-08-23T13:37:15.390Z,9.50
2017-08-23T13:39:43.740Z,8.17
2017-08-23T13:42:12.093Z,8.03
2017-08-23T13:44:40.547Z,7.33
2017-08-23T13:47:08.866Z,7.57
2017-08-23T13:49:37.347Z,10.27
2017-08-23T13:52:05.647Z,8.03
2017-08-23T13:54:33.978Z,9.40
2017-08-23T13:57:02.334Z,7.43
2017-08-23T13:59:30.751Z,7.70
2017-08-23T14:01:59.082Z,8.67
2017-08-23T14:04:27.390Z,7.17
2017-08-23T14:06:55.726Z,7.40
2017-08-23T14:09:24.165Z,4.97
2017-08-23T14:11:52.470Z,6.90
2017-08-23T14:14:20.803Z,9.27
2017-08-23T14:16:49.134Z,8.70
2017-08-23T14:19:17.455Z,8.10
2017-08-23T14:21:45.818Z,6.43
2017-08-23T14:24:14.598Z,7.43
2017-08-23T14:26:43.020Z,15.40
2017-08-23T14:29:11.379Z,8.97
2017-08-23T14:31:39.858Z,6.17
2017-08-23T14:34:08.251Z,8.13
2017-08-23T14:36:36.591Z,8.40
2017-08-23T14:39:05.083Z,5.63
2017-08-23T14:41:33.449Z,5.63
2017-08-23T14:44:01.835Z,8.47
2017-08-23T14:46:30.213Z,6.13
2017-08-23T14:48:58.611Z,8.03
2017-08-23T14:51:26.909Z,6.60
2017-08-23T14:53:55.371Z,6.07
2017-08-23T14:56:23.691Z,5.93
2017-08-23T14:58:52.131Z,6.20
2017-08-23T15:01:20.597Z,7.00
2017-08-23T15:03:49.327Z,5.40
2017-08-23T15:06:17.648Z,4.57
2017-08-23T15:08:45.949Z,5.57
2017-08-23T15:11:14.338Z,6.53
2017-08-23T15:13:42.703Z,6.67
2017-08-23T15:16:11.095Z,6.67
2017-08-23T15:18:39.511Z,5.83
2017-08-23T15:21:07.906Z,5.93
2017-08-23T15:23:36.226Z,6.40
2017-08-23T15:26:04.534Z,6.40
2017-08-23T15:28:32.901Z,5.03
2017-08-23T15:31:01.626Z,6.10
2017-08-23T15:33:30.238Z,5.43
2017-08-23T15:35:58.949Z,5.87
2017-08-23T15:38:27.379Z,4.43
2017-08-23T15:40:55.739Z,10.80
2017-08-23T15:43:24.087Z,9.67
2017-08-23T15:45:52.500Z,8.23
2017-08-23T15:48:20.859Z,7.90
2017-08-23T15:50:49.217Z,11.20
2017-08-23T15:53:17.675Z,10.53
2017-08-23T15:55:46.067Z,6.83
2017-08-23T15:58:14.379Z,9.77
2017-08-23T16:00:42.736Z,7.87
2017-08-23T16:03:11.095Z,8.40
2017-08-23T16:05:39.437Z,7.87
2017-08-23T16:08:07.812Z,8.97
2017-08-23T16:10:36.306Z,7.67
2017-08-23T16:13:04.902Z,7.43
2017-08-23T16:15:33.258Z,8.20
2017-08-23T16:18:01.844Z,14.67
2017-08-23T16:20:30.194Z,9.00
2017-08-23T16:22:58.496Z,13.40
2017-08-23T16:25:27.160Z,9.50
2017-08-23T16:27:55.854Z,13.50
2017-08-23T16:30:25.016Z,15.00
2017-08-23T16:32:53.429Z,14.20
2017-08-23T16:35:22.134Z,14.07
2017-08-23T16:37:51.060Z,13.70
2017-08-23T16:40:19.451Z,11.87
2017-08-23T16:42:47.779Z,13.33
2017-08-23T16:45:16.183Z,8.17
2017-08-23T16:47:44.585Z,9.13
2017-08-23T16:50:13.077Z,7.97
2017-08-23T16:52:41.617Z,8.87
2017-08-23T16:55:10.033Z,7.87
2017-08-23T16:57:38.374Z,10.57
2017-08-23T17:00:07.027Z,7.63
2017-08-23T17:02:35.371Z,9.60
2017-08-23T17:05:03.749Z,8.07
2017-08-23T17:07:32.152Z,9.07
2017-08-23T17:10:00.676Z,9.23
2017-08-23T17:12:29.023Z,8.93
2017-08-23T17:14:57.366Z,8.70
2017-08-23T17:17:25.752Z,7.70
2017-08-23T17:19:54.090Z,11.70
2017-08-23T17:22:22.458Z,7.00
2017-08-23T17:24:51.641Z,10.37
2017-08-23T17:27:19.985Z,9.77
2017-08-23T17:29:48.282Z,8.33
2017-08-23T17:32:16.694Z,10.13
2017-08-23T17:34:45.039Z,9.53
2017-08-23T17:37:13.438Z,7.83
2017-08-23T17:39:42.202Z,5.80
2017-08-23T17:42:10.600Z,6.77
2017-08-23T17:44:39.040Z,8.53
2017-08-23T17:47:07.427Z,6.57
2017-08-23T17:49:35.769Z,6.50
2017-08-23T17:52:04.232Z,6.90
2017-08-23T17:54:32.740Z,7.33
2017-08-23T17:57:02.094Z,7.50
2017-08-23T17:59:30.427Z,6.50
2017-08-23T18:01:58.862Z,5.80
2017-08-23T18:04:27.259Z,5.43
2017-08-23T18:06:55.659Z,8.23
2017-08-23T18:09:23.989Z,6.07
2017-08-23T18:11:53.124Z,7.30
2017-08-23T18:14:21.500Z,6.37
2017-08-23T18:16:49.917Z,7.00
2017-08-23T18:19:18.413Z,6.50
2017-08-23T18:21:46.876Z,6.00
2017-08-23T18:24:15.213Z,6.63
2017-08-23T18:26:43.590Z,5.80
2017-08-23T18:29:11.923Z,9.33
2017-08-23T18:31:40.607Z,6.87
2017-08-23T18:34:09.004Z,6.50
2017-08-23T18:36:37.370Z,8.90
2017-08-23T18:39:06.234Z,6.40
2017-08-23T18:41:34.567Z,6.20
2017-08-23T18:44:02.900Z,6.17
2017-08-23T18:46:31.264Z,5.00
2017-08-23T18:48:59.634Z,5.03
2017-08-23T18:51:28.188Z,6.73
2017-08-23T18:53:56.545Z,8.20
2017-08-23T18:56:25.033Z,9.30
2017-08-23T18:58:53.434Z,7.90
2017-08-23T19:01:21.745Z,7.03
2017-08-23T19:03:50.200Z,8.90
2017-08-23T19:06:18.549Z,7.47
2017-08-23T19:08:46.927Z,7.33
2017-08-23T19:11:15.536Z,9.57
2017-08-23T19:13:43.911Z,8.13
2017-08-23T19:16:12.277Z,8.87
2017-08-23T19:18:40.996Z,8.33
2017-08-23T19:21:09.785Z,7.17
2017-08-23T19:23:38.532Z,7.07
2017-08-23T19:26:07.216Z,8.37
2017-08-23T19:28:35.615Z,9.00
2017-08-23T19:31:04.961Z,7.60
2017-08-23T19:33:33.430Z,7.37
2017-08-23T19:36:01.770Z,10.60
2017-08-23T19:38:30.093Z,7.90
2017-08-23T19:40:58.449Z,5.80
2017-08-23T19:43:26.765Z,6.20
2017-08-23T19:45:55.876Z,6.63
2017-08-23T19:48:24.231Z,6.07
2017-08-23T19:50:52.642Z,4.93
2017-08-23T19:53:21.028Z,5.97
2017-08-23T19:55:49.599Z,7.27
2017-08-23T19:58:17.935Z,6.90
2017-08-23T20:00:46.312Z,7.90
2017-08-23T20:03:14.807Z,10.63
2017-08-23T20:05:43.165Z,7.43
2017-08-23T20:08:12.288Z,6.37
2017-08-23T20:10:42.596Z,7.50
2017-08-23T20:13:10.977Z,6.60
2017-08-23T20:15:39.301Z,8.10
2017-08-23T20:18:07.685Z,5.90
2017-08-23T20:20:36.019Z,14.50
2017-08-23T20:23:04.376Z,7.97
2017-08-23T20:25:32.756Z,6.00
2017-08-23T20:28:01.134Z,5.53
2017-08-23T20:30:29.543Z,7.50
2017-08-23T20:32:57.908Z,9.10
2017-08-23T20:35:26.309Z,8.67
2017-08-23T20:37:54.699Z,11.40
2017-08-23T20:40:23.019Z,7.80
2017-08-23T20:42:51.899Z,7.37
2017-08-23T20:45:20.227Z,5.50
2017-08-23T20:47:48.594Z,8.30
2017-08-23T20:50:16.980Z,8.27
2017-08-23T20:52:45.377Z,7.70
2017-08-23T20:55:13.761Z,7.83
2017-08-23T20:57:42.128Z,11.73
2017-08-23T21:00:10.483Z,11.27
2017-08-23T21:02:38.850Z,8.80
2017-08-23T21:05:07.241Z,9.40
2017-08-23T21:07:35.583Z,11.30
2017-08-23T21:10:03.952Z,8.57
2017-08-23T21:12:32.288Z,9.90
2017-08-23T21:15:00.753Z,10.80
2017-08-23T21:17:29.055Z,10.03
2017-08-23T21:19:57.394Z,11.20
2017-08-23T21:22:25.753Z,11.27
2017-08-23T21:24:54.075Z,11.03
2017-08-23T21:27:22.502Z,9.77
2017-08-23T21:29:50.851Z,10.80
2017-08-23T21:32:19.183Z,11.00
2017-08-23T21:34:47.508Z,8.80
2017-08-23T21:37:15.847Z,11.30
2017-08-23T21:39:44.262Z,11.53
2017-08-23T21:42:12.672Z,10.70
2017-08-23T21:44:41.007Z,11.20
2017-08-23T21:47:09.679Z,13.30
2017-08-23T21:49:38.037Z,13.17
2017-08-23T21:52:06.349Z,12.40
2017-08-23T21:54:34.694Z,10.37
2017-08-23T21:57:03.025Z,10.40
2017-08-23T21:59:31.430Z,12.67
2017-08-23T22:01:59.838Z,10.47
2017-08-23T22:04:28.181Z,11.40
2017-08-23T22:06:56.531Z,11.10
2017-08-23T22:09:24.876Z,11.40
2017-08-23T22:11:53.259Z,10.10
2017-08-23T22:14:21.693Z,11.43
2017-08-23T22:16:50.049Z,12.03
2017-08-23T22:19:18.401Z,16.03
2017-08-23T22:21:46.748Z,12.07
2017-08-23T22:24:15.102Z,13.47
2017-08-23T22:26:43.432Z,13.47
2017-08-23T22:29:11.777Z,13.10
2017-08-23T22:31:40.133Z,14.10
2017-08-23T22:34:08.462Z,12.63
2017-08-23T22:36:36.771Z,14.30
2017-08-23T22:39:05.270Z,12.87
2017-08-23T22:41:33.576Z,13.70
2017-08-23T22:44:01.891Z,14.60
2017-08-23T22:46:30.250Z,12.50
2017-08-23T22:48:58.575Z,12.07
2017-08-23T22:51:26.917Z,23.03
2017-08-23T22:53:55.222Z,9.83
2017-08-23T22:56:23.555Z,10.40
2017-08-23T22:58:51.897Z,11.73
2017-08-23T23:01:20.255Z,11.97
2017-08-23T23:03:48.558Z,11.73
2017-08-23T23:06:16.883Z,9.40
2017-08-23T23:08:45.943Z,10.53
2017-08-23T23:11:14.546Z,11.27
2017-08-23T23:13:42.829Z,9.43
2017-08-23T23:16:11.110Z,9.20
2017-08-23T23:18:39.431Z,11.53
2017-08-23T23:21:07.734Z,10.60
2017-08-23T23:23:36.059Z,9.00
2017-08-23T23:26:04.352Z,10.67
2017-08-23T23:28:32.674Z,9.80
2017-08-23T23:31:00.972Z,9.43
2017-08-23T23:33:29.291Z,8.80
2017-08-23T23:35:57.598Z,8.57
2017-08-23T23:38:25.891Z,9.20
2017-08-23T23:40:54.453Z,8.80
2017-08-23T23:43:22.771Z,7.87
2017-08-23T23:45:51.065Z,8.90
2017-08-23T23:48:19.384Z,8.53
2017-08-23T23:50:48.488Z,9.30
2017-08-23T23:53:16.901Z,9.70
2017-08-23T23:55:45.203Z,8.23
2017-08-23T23:58:13.491Z,8.67
